createdAt,value
2019-02-26T00:00:30.902Z,96.17
2019-02-26T00:01:30.963Z,96.17
2019-02-26T00:02:32.489Z,95.88
2019-02-26T00:03:31.408Z,96.26
2019-02-26T00:04:32.617Z,96.45
2019-02-26T00:05:32.887Z,97.02
2019-02-26T00:06:30.673Z,97.02
2019-02-26T00:07:32.189Z,96.83
2019-02-26T00:08:31.729Z,97.21
2019-02-26T00:09:32.439Z,96.45
2019-02-26T00:10:31.599Z,96.73
2019-02-26T00:11:30.877Z,97.02
2019-02-26T00:12:31.122Z,96.73
2019-02-26T00:13:31.979Z,97.12
2019-02-26T00:14:30.471Z,96.92
2019-02-26T00:15:33.289Z,96.92
2019-02-26T00:16:35.240Z,97.02
2019-02-26T00:17:30.257Z,96.92
2019-02-26T00:18:30.218Z,97.02
2019-02-26T00:19:30.182Z,96.08
2019-02-26T00:20:31.912Z,96.26
2019-02-26T00:21:31.084Z,96.26
2019-02-26T00:22:32.218Z,96.26
2019-02-26T00:23:30.106Z,96.08
2019-02-26T00:24:30.799Z,96.26
2019-02-26T00:25:29.963Z,96.36
2019-02-26T00:26:29.918Z,95.98
2019-02-26T00:27:30.625Z,95.88
2019-02-26T00:28:29.839Z,95.98
2019-02-26T00:29:30.403Z,96.45
2019-02-26T00:30:31.212Z,95.88
2019-02-26T00:31:30.457Z,95.88
2019-02-26T00:32:30.274Z,96.08
2019-02-26T00:33:29.653Z,95.41
2019-02-26T00:34:31.742Z,94.93
2019-02-26T00:35:29.577Z,95.03
2019-02-26T00:36:31.420Z,95.50
2019-02-26T00:37:30.674Z,95.22
2019-02-26T00:38:29.466Z,95.12
2019-02-26T00:39:31.369Z,95.50
2019-02-26T00:40:29.390Z,94.74
2019-02-26T00:41:31.276Z,94.70
2019-02-26T00:42:31.434Z,94.51
2019-02-26T00:43:30.631Z,94.13
2019-02-26T00:44:29.837Z,93.37
2019-02-26T00:45:31.338Z,93.37
2019-02-26T00:46:30.285Z,92.42
2019-02-26T00:47:31.807Z,92.14
2019-02-26T00:48:31.428Z,91.38
2019-02-26T00:49:30.214Z,90.24
2019-02-26T00:50:30.396Z,89.62
2019-02-26T00:51:28.970Z,89.43
2019-02-26T00:52:30.406Z,89.14
2019-02-26T00:53:30.593Z,89.14
2019-02-26T00:54:29.833Z,89.24
2019-02-26T00:55:29.798Z,89.53
2019-02-26T00:56:29.827Z,89.90
2019-02-26T00:57:30.966Z,89.33
2019-02-26T00:58:28.708Z,89.62
2019-02-26T00:59:28.673Z,89.53
2019-02-26T01:00:30.386Z,89.72
2019-02-26T01:01:28.618Z,89.43
2019-02-26T01:02:28.559Z,89.62
2019-02-26T01:03:28.521Z,89.53
2019-02-26T01:04:28.484Z,89.48
2019-02-26T01:05:28.461Z,89.67
2019-02-26T01:06:29.055Z,89.58
2019-02-26T01:07:30.276Z,89.39
2019-02-26T01:08:28.335Z,89.10
2019-02-26T01:09:29.452Z,89.39
2019-02-26T01:10:28.262Z,89.39
2019-02-26T01:11:30.106Z,89.67
2019-02-26T01:12:28.184Z,89.67
2019-02-26T01:13:30.007Z,89.95
2019-02-26T01:14:28.113Z,90.14
2019-02-26T01:15:28.089Z,90.43
2019-02-26T01:16:28.041Z,90.24
2019-02-26T01:17:27.998Z,90.52
2019-02-26T01:18:29.008Z,91.85
2019-02-26T01:19:27.931Z,92.76
2019-02-26T01:20:29.575Z,93.80
2019-02-26T01:21:29.121Z,94.08
2019-02-26T01:22:27.818Z,94.46
2019-02-26T01:23:28.970Z,94.37
2019-02-26T01:24:28.176Z,95.12
2019-02-26T01:25:27.700Z,96.36
2019-02-26T01:26:27.940Z,96.59
2019-02-26T01:27:27.626Z,96.69
2019-02-26T01:28:29.267Z,97.45
2019-02-26T01:29:28.157Z,97.83
2019-02-26T01:30:29.514Z,98.21
2019-02-26T01:31:29.280Z,98.77
2019-02-26T01:32:27.438Z,99.25
2019-02-26T01:33:29.679Z,98.77
2019-02-26T01:34:27.363Z,99.82
2019-02-26T01:35:28.859Z,99.99
2019-02-26T01:36:27.290Z,99.99
2019-02-26T01:37:27.869Z,99.99
2019-02-26T01:38:27.215Z,99.99
2019-02-26T01:39:27.176Z,99.99
2019-02-26T01:40:27.138Z,99.99
2019-02-26T01:41:27.389Z,99.99
2019-02-26T01:42:27.678Z,99.99
2019-02-26T01:43:27.023Z,99.99
2019-02-26T01:44:30.192Z,99.99
2019-02-26T01:45:28.106Z,99.99
2019-02-26T01:46:26.910Z,99.99
2019-02-26T01:47:28.539Z,99.99
2019-02-26T01:48:26.834Z,99.99
2019-02-26T01:49:28.516Z,99.99
2019-02-26T01:50:28.387Z,99.99
2019-02-26T01:51:28.566Z,99.99
2019-02-26T01:52:26.683Z,99.99
2019-02-26T01:53:27.347Z,99.99
2019-02-26T01:54:28.319Z,99.99
2019-02-26T01:55:27.644Z,99.99
2019-02-26T01:56:26.524Z,99.99
2019-02-26T01:57:27.682Z,99.99
2019-02-26T01:58:26.478Z,99.99
2019-02-26T01:59:26.413Z,99.99
2019-02-26T02:00:26.380Z,99.99
2019-02-26T02:01:26.342Z,99.99
2019-02-26T02:02:28.259Z,99.99
2019-02-26T02:03:28.016Z,99.99
2019-02-26T02:04:26.224Z,99.99
2019-02-26T02:05:28.760Z,99.67
2019-02-26T02:06:26.146Z,99.58
2019-02-26T02:07:28.118Z,99.39
2019-02-26T02:08:26.079Z,99.77
2019-02-26T02:09:26.033Z,99.29
2019-02-26T02:10:25.994Z,99.39
2019-02-26T02:11:28.411Z,99.77
2019-02-26T02:12:29.552Z,99.58
2019-02-26T02:13:28.268Z,99.99
2019-02-26T02:14:25.851Z,99.99
2019-02-26T02:15:25.804Z,99.99
2019-02-26T02:16:27.267Z,99.99
2019-02-26T02:17:25.725Z,99.99
2019-02-26T02:18:27.587Z,99.99
2019-02-26T02:19:27.429Z,99.99
2019-02-26T02:20:25.612Z,99.99
2019-02-26T02:21:25.980Z,99.99
2019-02-26T02:22:25.535Z,99.99
2019-02-26T02:23:26.228Z,99.99
2019-02-26T02:24:25.457Z,99.99
2019-02-26T02:25:29.023Z,99.99
2019-02-26T02:26:25.376Z,99.99
2019-02-26T02:27:28.136Z,99.99
2019-02-26T02:28:26.333Z,99.99
2019-02-26T02:29:28.072Z,99.99
2019-02-26T02:30:30.400Z,99.99
2019-02-26T02:31:28.040Z,99.99
2019-02-26T02:32:26.618Z,99.99
2019-02-26T02:33:27.427Z,99.99
2019-02-26T02:34:26.961Z,99.99
2019-02-26T02:35:25.031Z,99.99
2019-02-26T02:36:26.525Z,99.99
2019-02-26T02:37:26.933Z,99.99
2019-02-26T02:38:24.936Z,99.99
2019-02-26T02:39:26.533Z,99.99
2019-02-26T02:40:24.863Z,99.99
2019-02-26T02:41:24.802Z,99.99
2019-02-26T02:42:24.762Z,99.99
2019-02-26T02:43:24.727Z,99.99
2019-02-26T02:44:25.568Z,99.99
2019-02-26T02:45:24.651Z,99.99
2019-02-26T02:46:24.668Z,99.99
2019-02-26T02:47:25.262Z,99.99
2019-02-26T02:48:24.534Z,99.99
2019-02-26T02:49:24.491Z,99.99
2019-02-26T02:50:24.451Z,99.99
2019-02-26T02:51:25.712Z,99.99
2019-02-26T02:52:26.871Z,99.99
2019-02-26T02:53:26.516Z,99.99
2019-02-26T02:54:26.138Z,99.99
2019-02-26T02:55:24.264Z,99.99
2019-02-26T02:56:24.709Z,99.99
2019-02-26T02:57:25.042Z,99.99
2019-02-26T02:58:26.092Z,99.99
2019-02-26T02:59:24.103Z,99.99
2019-02-26T03:00:26.571Z,99.99
2019-02-26T03:01:27.982Z,99.99
2019-02-26T03:02:23.978Z,99.99
2019-02-26T03:03:23.963Z,99.99
2019-02-26T03:04:27.886Z,99.99
2019-02-26T03:05:23.869Z,99.99
2019-02-26T03:06:24.257Z,99.99
2019-02-26T03:07:26.692Z,99.99
2019-02-26T03:08:23.757Z,99.99
2019-02-26T03:09:23.720Z,99.99
2019-02-26T03:10:28.400Z,99.99
2019-02-26T03:11:23.636Z,99.99
2019-02-26T03:12:23.612Z,99.99
2019-02-26T03:13:25.464Z,99.99
2019-02-26T03:14:23.524Z,99.99
2019-02-26T03:15:24.530Z,99.99
2019-02-26T03:16:25.074Z,99.99
2019-02-26T03:17:23.407Z,99.99
2019-02-26T03:18:23.366Z,99.99
2019-02-26T03:19:23.329Z,99.99
2019-02-26T03:20:24.739Z,99.99
2019-02-26T03:21:24.799Z,99.99
2019-02-26T03:22:23.214Z,99.99
2019-02-26T03:23:23.187Z,99.99
2019-02-26T03:24:25.581Z,99.99
2019-02-26T03:25:25.847Z,99.99
2019-02-26T03:26:25.317Z,99.99
2019-02-26T03:27:23.019Z,99.99
2019-02-26T03:28:22.983Z,99.99
2019-02-26T03:29:22.947Z,99.99
2019-02-26T03:30:31.889Z,99.99
2019-02-26T03:31:28.719Z,99.99
2019-02-26T03:32:22.828Z,99.99
2019-02-26T03:33:22.818Z,99.99
2019-02-26T03:34:25.299Z,99.99
2019-02-26T03:35:23.469Z,99.99
2019-02-26T03:36:22.697Z,99.99
2019-02-26T03:37:23.347Z,99.99
2019-02-26T03:38:23.574Z,99.99
2019-02-26T03:39:22.556Z,99.99
2019-02-26T03:40:24.219Z,99.99
2019-02-26T03:41:25.082Z,99.99
2019-02-26T03:42:22.439Z,99.99
2019-02-26T03:43:22.400Z,99.99
2019-02-26T03:44:22.362Z,99.99
2019-02-26T03:45:24.875Z,99.99
2019-02-26T03:46:22.282Z,99.99
2019-02-26T03:47:22.241Z,99.99
2019-02-26T03:48:22.216Z,99.99
2019-02-26T03:49:26.406Z,99.99
2019-02-26T03:50:26.341Z,99.99
2019-02-26T03:51:22.089Z,99.99
2019-02-26T03:52:22.055Z,99.99
2019-02-26T03:53:25.577Z,99.99
2019-02-26T03:54:21.992Z,99.99
2019-02-26T03:55:21.934Z,99.99
2019-02-26T03:56:21.894Z,99.99
2019-02-26T03:57:22.710Z,99.99
2019-02-26T03:58:21.813Z,99.99
2019-02-26T03:59:21.778Z,99.99
2019-02-26T04:00:21.739Z,99.99
2019-02-26T04:01:21.708Z,99.99
2019-02-26T04:02:23.484Z,99.99
2019-02-26T04:03:21.622Z,99.99
2019-02-26T04:04:23.006Z,99.99
2019-02-26T04:05:21.537Z,99.99
2019-02-26T04:06:21.501Z,99.99
2019-02-26T04:07:22.818Z,99.99
2019-02-26T04:08:22.501Z,99.99
2019-02-26T04:09:21.971Z,99.99
2019-02-26T04:10:21.349Z,99.99
2019-02-26T04:11:22.818Z,99.99
2019-02-26T04:12:21.269Z,99.99
2019-02-26T04:13:21.230Z,99.99
2019-02-26T04:14:22.891Z,99.99
2019-02-26T04:15:24.259Z,99.99
2019-02-26T04:16:21.112Z,99.99
2019-02-26T04:17:23.223Z,99.99
2019-02-26T04:18:21.030Z,99.99
2019-02-26T04:19:21.030Z,99.99
2019-02-26T04:20:20.957Z,99.99
2019-02-26T04:21:21.205Z,99.99
2019-02-26T04:22:21.491Z,99.99
2019-02-26T04:23:22.001Z,99.99
2019-02-26T04:24:23.113Z,99.99
2019-02-26T04:25:22.151Z,99.99
2019-02-26T04:26:21.070Z,99.99
2019-02-26T04:27:20.691Z,99.99
2019-02-26T04:28:20.645Z,99.99
2019-02-26T04:29:20.622Z,99.99
2019-02-26T04:30:20.561Z,99.99
2019-02-26T04:31:20.524Z,99.99
2019-02-26T04:32:20.993Z,99.99
2019-02-26T04:33:20.449Z,99.99
2019-02-26T04:34:20.414Z,99.99
2019-02-26T04:35:20.401Z,99.99
2019-02-26T04:36:22.253Z,99.99
2019-02-26T04:37:20.293Z,99.99
2019-02-26T04:38:20.609Z,99.99
2019-02-26T04:39:22.076Z,99.99
2019-02-26T04:40:20.183Z,99.99
2019-02-26T04:41:20.137Z,99.99
2019-02-26T04:42:20.597Z,99.99
2019-02-26T04:43:20.061Z,99.99
2019-02-26T04:44:22.605Z,99.99
2019-02-26T04:45:20.013Z,99.99
2019-02-26T04:46:19.944Z,99.99
2019-02-26T04:47:21.925Z,99.99
2019-02-26T04:48:22.790Z,99.99
2019-02-26T04:49:19.823Z,99.99
2019-02-26T04:50:23.054Z,99.99
2019-02-26T04:51:19.744Z,99.99
2019-02-26T04:52:19.749Z,99.99
2019-02-26T04:53:19.665Z,99.99
2019-02-26T04:54:23.788Z,99.99
2019-02-26T04:55:19.580Z,99.99
2019-02-26T04:56:19.543Z,99.99
2019-02-26T04:57:19.510Z,99.99
2019-02-26T04:58:20.744Z,99.99
2019-02-26T04:59:19.435Z,99.99
2019-02-26T05:00:19.400Z,99.99
2019-02-26T05:01:19.359Z,99.99
2019-02-26T05:02:19.317Z,99.99
2019-02-26T05:03:20.208Z,99.99
2019-02-26T05:04:19.236Z,99.99
2019-02-26T05:05:19.203Z,99.99
2019-02-26T05:06:19.163Z,99.99
2019-02-26T05:07:19.365Z,99.99
2019-02-26T05:08:19.081Z,99.99
2019-02-26T05:09:19.034Z,99.99
2019-02-26T05:10:20.498Z,99.99
2019-02-26T05:11:31.190Z,99.99
2019-02-26T05:12:18.916Z,99.99
2019-02-26T05:13:18.882Z,99.99
2019-02-26T05:14:22.993Z,99.99
2019-02-26T05:15:21.007Z,99.99
2019-02-26T05:16:18.768Z,99.99
2019-02-26T05:17:21.286Z,99.99
2019-02-26T05:18:20.491Z,99.99
2019-02-26T05:19:19.636Z,99.99
2019-02-26T05:20:19.062Z,99.99
2019-02-26T05:21:18.574Z,99.99
2019-02-26T05:22:19.847Z,99.99
2019-02-26T05:23:20.516Z,99.99
2019-02-26T05:24:21.285Z,99.99
2019-02-26T05:25:19.802Z,99.99
2019-02-26T05:26:20.728Z,99.99
2019-02-26T05:27:21.888Z,99.99
2019-02-26T05:28:18.293Z,99.99
2019-02-26T05:29:18.253Z,99.99
2019-02-26T05:30:21.725Z,99.99
2019-02-26T05:31:18.167Z,99.99
2019-02-26T05:32:18.139Z,99.99
2019-02-26T05:33:18.498Z,99.99
2019-02-26T05:34:20.612Z,99.99
2019-02-26T05:35:22.258Z,99.99
2019-02-26T05:36:17.985Z,99.99
2019-02-26T05:37:17.962Z,99.99
2019-02-26T05:38:17.913Z,99.99
2019-02-26T05:39:20.920Z,99.99
2019-02-26T05:40:21.431Z,99.99
2019-02-26T05:41:17.782Z,99.99
2019-02-26T05:42:17.749Z,99.99
2019-02-26T05:43:17.705Z,99.99
2019-02-26T05:44:17.664Z,99.99
2019-02-26T05:45:17.629Z,99.99
2019-02-26T05:46:19.569Z,99.99
2019-02-26T05:47:20.673Z,99.99
2019-02-26T05:48:20.120Z,99.99
2019-02-26T05:49:19.453Z,99.99
2019-02-26T05:50:17.433Z,99.99
2019-02-26T05:51:17.413Z,99.99
2019-02-26T05:52:17.356Z,99.99
2019-02-26T05:53:17.315Z,99.99
2019-02-26T05:54:20.814Z,99.99
2019-02-26T05:55:19.737Z,99.99
2019-02-26T05:56:20.178Z,99.99
2019-02-26T05:57:31.269Z,99.99
2019-02-26T05:58:19.253Z,99.99
2019-02-26T05:59:18.073Z,99.99
2019-02-26T06:00:20.642Z,99.99
2019-02-26T06:01:19.334Z,99.99
2019-02-26T06:02:19.079Z,99.99
2019-02-26T06:03:18.727Z,99.99
2019-02-26T06:04:19.584Z,99.99
2019-02-26T06:05:18.421Z,99.99
2019-02-26T06:06:16.828Z,99.99
2019-02-26T06:07:19.235Z,99.99
2019-02-26T06:08:16.728Z,99.99
2019-02-26T06:09:16.697Z,99.99
2019-02-26T06:10:18.910Z,99.99
2019-02-26T06:11:17.129Z,99.99
2019-02-26T06:12:16.572Z,99.99
2019-02-26T06:13:16.535Z,99.99
2019-02-26T06:14:16.508Z,99.99
2019-02-26T06:15:16.456Z,99.99
2019-02-26T06:16:16.420Z,99.99
2019-02-26T06:17:17.949Z,99.99
2019-02-26T06:18:16.339Z,99.99
2019-02-26T06:19:18.182Z,99.99
2019-02-26T06:20:16.279Z,99.99
2019-02-26T06:21:18.420Z,99.99
2019-02-26T06:22:19.245Z,99.99
2019-02-26T06:23:16.142Z,99.99
2019-02-26T06:24:20.267Z,99.99
2019-02-26T06:25:23.024Z,99.99
2019-02-26T06:26:17.794Z,99.99
2019-02-26T06:27:18.799Z,99.99
2019-02-26T06:28:18.043Z,99.99
2019-02-26T06:29:19.996Z,99.99
2019-02-26T06:30:15.963Z,99.99
2019-02-26T06:31:17.575Z,99.99
2019-02-26T06:32:15.792Z,99.99
2019-02-26T06:33:16.374Z,99.99
2019-02-26T06:34:16.346Z,99.99
2019-02-26T06:35:16.445Z,99.99
2019-02-26T06:36:15.633Z,99.99
2019-02-26T06:37:16.493Z,99.99
2019-02-26T06:38:15.555Z,99.99
2019-02-26T06:39:15.515Z,99.99
2019-02-26T06:40:15.496Z,99.99
2019-02-26T06:41:16.193Z,99.99
2019-02-26T06:42:15.402Z,99.99
2019-02-26T06:43:16.192Z,99.99
2019-02-26T06:44:15.320Z,99.99
2019-02-26T06:45:16.418Z,99.99
2019-02-26T06:46:15.239Z,99.99
2019-02-26T06:47:15.202Z,99.99
2019-02-26T06:48:19.322Z,99.99
2019-02-26T06:49:16.939Z,99.99
2019-02-26T06:50:17.999Z,99.99
2019-02-26T06:51:15.049Z,99.99
2019-02-26T06:52:16.122Z,99.99
2019-02-26T06:53:18.144Z,99.99
2019-02-26T06:54:15.477Z,99.99
2019-02-26T06:55:14.894Z,99.99
2019-02-26T06:56:16.005Z,99.99
2019-02-26T06:57:14.817Z,99.99
2019-02-26T06:58:14.774Z,99.99
2019-02-26T06:59:14.738Z,99.99
2019-02-26T07:00:16.795Z,99.99
2019-02-26T07:01:16.531Z,99.99
2019-02-26T07:02:14.624Z,99.99
2019-02-26T07:03:14.587Z,99.99
2019-02-26T07:04:14.547Z,99.99
2019-02-26T07:05:14.509Z,99.99
2019-02-26T07:06:18.408Z,99.99
2019-02-26T07:07:14.629Z,99.99
2019-02-26T07:08:14.395Z,99.99
2019-02-26T07:09:16.559Z,99.99
2019-02-26T07:10:18.491Z,99.99
2019-02-26T07:11:14.285Z,99.99
2019-02-26T07:12:15.076Z,99.99
2019-02-26T07:13:14.239Z,99.82
2019-02-26T07:14:14.196Z,99.91
2019-02-26T07:15:14.136Z,99.63
2019-02-26T07:16:14.094Z,99.15
2019-02-26T07:17:14.059Z,98.77
2019-02-26T07:18:17.148Z,98.49
2019-02-26T07:19:16.036Z,98.02
2019-02-26T07:20:13.948Z,97.73
2019-02-26T07:21:13.910Z,97.69
2019-02-26T07:22:15.935Z,97.40
2019-02-26T07:23:15.575Z,97.40
2019-02-26T07:24:15.841Z,96.08
2019-02-26T07:25:15.992Z,96.08
2019-02-26T07:26:15.971Z,95.93
2019-02-26T07:27:13.940Z,95.07
2019-02-26T07:28:15.238Z,93.94
2019-02-26T07:29:17.379Z,93.37
2019-02-26T07:30:13.583Z,92.52
2019-02-26T07:31:13.547Z,91.99
2019-02-26T07:32:14.789Z,91.42
2019-02-26T07:33:15.007Z,90.85
2019-02-26T07:34:15.206Z,89.90
2019-02-26T07:35:16.412Z,89.19
2019-02-26T07:36:13.377Z,88.81
2019-02-26T07:37:13.985Z,87.95
2019-02-26T07:38:13.305Z,87.52
2019-02-26T07:39:15.318Z,86.95
2019-02-26T07:40:15.860Z,86.47
2019-02-26T07:41:13.227Z,85.38
2019-02-26T07:42:14.684Z,84.91
2019-02-26T07:43:15.421Z,84.00
2019-02-26T07:44:15.666Z,82.67
2019-02-26T07:45:15.270Z,80.57
2019-02-26T07:46:14.602Z,80.19
2019-02-26T07:47:13.012Z,79.72
2019-02-26T07:48:16.116Z,78.42
2019-02-26T07:49:12.946Z,78.14
2019-02-26T07:50:14.571Z,77.19
2019-02-26T07:51:12.881Z,76.65
2019-02-26T07:52:12.851Z,75.51
2019-02-26T07:53:14.528Z,74.75
2019-02-26T07:54:12.788Z,75.07
2019-02-26T07:55:14.688Z,73.45
2019-02-26T07:56:12.726Z,71.73
2019-02-26T07:57:12.700Z,70.97
2019-02-26T07:58:13.746Z,71.11
2019-02-26T07:59:15.033Z,70.47
2019-02-26T08:00:12.607Z,70.19
2019-02-26T08:01:12.577Z,69.43
2019-02-26T08:02:13.620Z,69.46
2019-02-26T08:03:12.523Z,68.51
2019-02-26T08:04:13.554Z,67.36
2019-02-26T08:05:12.465Z,66.53
2019-02-26T08:06:14.058Z,65.96
2019-02-26T08:07:12.398Z,66.35
2019-02-26T08:08:14.262Z,65.67
2019-02-26T08:09:14.651Z,65.67
2019-02-26T08:10:14.450Z,65.39
2019-02-26T08:11:12.285Z,65.71
2019-02-26T08:12:13.711Z,64.62
2019-02-26T08:13:12.228Z,65.10
2019-02-26T08:14:14.387Z,64.65
2019-02-26T08:15:12.731Z,63.42
2019-02-26T08:16:12.146Z,63.45
2019-02-26T08:17:12.115Z,62.27
2019-02-26T08:18:12.092Z,62.49
2019-02-26T08:19:12.060Z,61.63
2019-02-26T08:20:14.589Z,61.06
2019-02-26T08:21:12.007Z,61.47
2019-02-26T08:22:11.978Z,60.04
2019-02-26T08:23:11.953Z,59.30
2019-02-26T08:24:13.037Z,58.06
2019-02-26T08:25:11.898Z,58.34
2019-02-26T08:26:11.874Z,58.44
2019-02-26T08:27:13.597Z,58.44
2019-02-26T08:28:13.495Z,58.15
2019-02-26T08:29:12.457Z,58.76
2019-02-26T08:30:12.651Z,57.87
2019-02-26T08:31:15.460Z,57.51
2019-02-26T08:32:13.754Z,56.84
2019-02-26T08:33:11.682Z,56.94
2019-02-26T08:34:13.513Z,56.10
2019-02-26T08:35:11.628Z,55.79
2019-02-26T08:36:13.500Z,55.73
2019-02-26T08:37:11.576Z,55.85
2019-02-26T08:38:11.549Z,55.27
2019-02-26T08:39:14.989Z,54.63
2019-02-26T08:40:11.498Z,53.89
2019-02-26T08:41:11.472Z,53.58
2019-02-26T08:42:11.445Z,53.86
2019-02-26T08:43:11.427Z,53.48
2019-02-26T08:44:11.398Z,54.08
2019-02-26T08:45:12.483Z,53.31
2019-02-26T08:46:12.174Z,53.50
2019-02-26T08:47:13.489Z,53.03
2019-02-26T08:48:14.666Z,51.32
2019-02-26T08:49:13.262Z,49.88
2019-02-26T08:50:12.530Z,49.33
2019-02-26T08:51:15.588Z,48.76
2019-02-26T08:52:11.200Z,47.44
2019-02-26T08:53:11.170Z,46.74
2019-02-26T08:54:20.349Z,46.77
2019-02-26T08:55:12.902Z,46.41
2019-02-26T08:56:11.096Z,46.96
2019-02-26T08:57:11.990Z,46.02
2019-02-26T08:58:12.544Z,46.14
2019-02-26T08:59:11.019Z,46.04
2019-02-26T09:00:10.999Z,46.43
2019-02-26T09:01:10.971Z,46.06
2019-02-26T09:02:10.949Z,45.49
2019-02-26T09:03:13.271Z,44.99
2019-02-26T09:04:12.287Z,46.41
2019-02-26T09:05:11.892Z,47.53
2019-02-26T09:06:13.457Z,47.08
2019-02-26T09:07:10.828Z,47.05
2019-02-26T09:08:13.226Z,47.05
2019-02-26T09:09:10.778Z,46.98
2019-02-26T09:10:12.619Z,46.53
2019-02-26T09:11:13.127Z,45.28
2019-02-26T09:12:10.731Z,44.70
2019-02-26T09:13:11.425Z,44.02
2019-02-26T09:14:12.083Z,44.14
2019-02-26T09:15:10.634Z,45.47
2019-02-26T09:16:10.610Z,44.62
2019-02-26T09:17:10.582Z,43.76
2019-02-26T09:18:10.562Z,44.07
2019-02-26T09:19:10.542Z,43.71
2019-02-26T09:20:12.321Z,42.74
2019-02-26T09:21:12.508Z,42.21
2019-02-26T09:22:14.018Z,42.16
2019-02-26T09:23:10.445Z,42.30
2019-02-26T09:24:10.421Z,41.51
2019-02-26T09:25:10.394Z,41.61
2019-02-26T09:26:10.371Z,40.86
2019-02-26T09:27:10.349Z,41.44
2019-02-26T09:28:10.326Z,41.07
2019-02-26T09:29:12.493Z,39.72
2019-02-26T09:30:11.728Z,40.20
2019-02-26T09:31:12.461Z,40.01
2019-02-26T09:32:11.739Z,40.51
2019-02-26T09:33:11.096Z,39.79
2019-02-26T09:34:10.186Z,39.34
2019-02-26T09:35:10.164Z,39.91
2019-02-26T09:36:12.589Z,39.54
2019-02-26T09:37:10.111Z,38.51
2019-02-26T09:38:11.871Z,38.70
2019-02-26T09:39:10.797Z,38.60
2019-02-26T09:40:10.046Z,38.79
2019-02-26T09:41:11.778Z,38.43
2019-02-26T09:42:09.998Z,37.19
2019-02-26T09:43:12.302Z,36.92
2019-02-26T09:44:11.662Z,36.72
2019-02-26T09:45:09.929Z,35.66
2019-02-26T09:46:14.443Z,35.37
2019-02-26T09:47:09.897Z,35.37
2019-02-26T09:48:10.436Z,36.34
2019-02-26T09:49:12.388Z,37.50
2019-02-26T09:50:10.359Z,38.06
2019-02-26T09:51:11.602Z,38.18
2019-02-26T09:52:09.768Z,38.64
2019-02-26T09:53:09.744Z,38.87
2019-02-26T09:54:10.887Z,38.56
2019-02-26T09:55:10.640Z,38.74
2019-02-26T09:56:09.675Z,38.37
2019-02-26T09:57:09.650Z,37.96
2019-02-26T09:58:09.627Z,37.98
2019-02-26T09:59:10.306Z,38.45
2019-02-26T10:00:09.584Z,39.03
2019-02-26T10:01:10.973Z,37.79
2019-02-26T10:02:09.536Z,38.08
2019-02-26T10:03:11.084Z,38.18
2019-02-26T10:04:09.504Z,37.30
2019-02-26T10:05:11.312Z,37.79
2019-02-26T10:06:11.324Z,37.77
2019-02-26T10:07:11.838Z,37.88
2019-02-26T10:08:09.400Z,38.06
2019-02-26T10:09:11.286Z,38.08
2019-02-26T10:10:11.502Z,37.42
2019-02-26T10:11:09.333Z,36.46
2019-02-26T10:12:12.289Z,36.94
2019-02-26T10:13:09.284Z,38.10
2019-02-26T10:14:10.223Z,37.24
2019-02-26T10:15:09.238Z,36.66
2019-02-26T10:16:09.240Z,35.89
2019-02-26T10:17:11.501Z,36.20
2019-02-26T10:18:09.507Z,36.08
2019-02-26T10:19:10.287Z,35.81
2019-02-26T10:20:09.487Z,35.05
2019-02-26T10:21:11.142Z,34.59
2019-02-26T10:22:12.640Z,33.99
2019-02-26T10:23:09.056Z,34.09
2019-02-26T10:24:09.032Z,34.86
2019-02-26T10:25:09.012Z,34.11
2019-02-26T10:26:10.691Z,33.56
2019-02-26T10:27:11.377Z,33.72
2019-02-26T10:28:11.394Z,33.60
2019-02-26T10:29:08.922Z,34.09
2019-02-26T10:30:11.240Z,34.38
2019-02-26T10:31:09.692Z,35.35
2019-02-26T10:32:11.254Z,35.28
2019-02-26T10:33:08.835Z,35.05
2019-02-26T10:34:12.472Z,34.49
2019-02-26T10:35:12.757Z,34.39
2019-02-26T10:36:11.200Z,35.09
2019-02-26T10:37:08.742Z,34.99
2019-02-26T10:38:11.402Z,33.56
2019-02-26T10:39:08.705Z,31.23
2019-02-26T10:40:10.356Z,32.02
2019-02-26T10:41:08.650Z,31.74
2019-02-26T10:42:08.629Z,31.35
2019-02-26T10:43:08.610Z,31.94
2019-02-26T10:44:08.585Z,32.31
2019-02-26T10:45:08.560Z,31.68
2019-02-26T10:46:08.542Z,30.22
2019-02-26T10:47:10.557Z,29.93
2019-02-26T10:48:08.510Z,30.91
2019-02-26T10:49:08.474Z,30.74
2019-02-26T10:50:10.066Z,30.01
2019-02-26T10:51:08.436Z,31.21
2019-02-26T10:52:10.876Z,31.10
2019-02-26T10:53:13.147Z,30.80
2019-02-26T10:54:11.742Z,31.38
2019-02-26T10:55:12.823Z,29.75
2019-02-26T10:56:08.326Z,31.19
2019-02-26T10:57:11.331Z,32.07
2019-02-26T10:58:12.105Z,32.26
2019-02-26T10:59:09.281Z,31.41
2019-02-26T11:00:10.415Z,30.08
2019-02-26T11:01:08.214Z,30.29
2019-02-26T11:02:08.193Z,30.10
2019-02-26T11:03:09.217Z,29.53
2019-02-26T11:04:08.152Z,29.22
2019-02-26T11:05:08.617Z,29.40
2019-02-26T11:06:10.048Z,29.82
2019-02-26T11:07:10.988Z,29.61
2019-02-26T11:08:09.271Z,29.25
2019-02-26T11:09:08.042Z,28.19
2019-02-26T11:10:08.023Z,28.77
2019-02-26T11:11:09.594Z,29.24
2019-02-26T11:12:08.592Z,29.72
2019-02-26T11:13:08.080Z,29.43
2019-02-26T11:14:10.455Z,27.90
2019-02-26T11:15:09.213Z,27.39
2019-02-26T11:16:07.910Z,27.12
2019-02-26T11:17:07.873Z,25.56
2019-02-26T11:18:08.225Z,25.37
2019-02-26T11:19:09.519Z,25.84
2019-02-26T11:20:07.905Z,26.34
2019-02-26T11:21:07.789Z,26.84
2019-02-26T11:22:07.770Z,26.57
2019-02-26T11:23:09.008Z,24.71
2019-02-26T11:24:08.738Z,25.18
2019-02-26T11:25:07.707Z,25.20
2019-02-26T11:26:10.708Z,25.31
2019-02-26T11:27:07.666Z,24.82
2019-02-26T11:28:09.811Z,23.96
2019-02-26T11:29:07.620Z,23.39
2019-02-26T11:30:07.606Z,23.30
2019-02-26T11:31:09.005Z,23.20
2019-02-26T11:32:07.827Z,22.71
2019-02-26T11:33:10.115Z,23.21
2019-02-26T11:34:10.973Z,22.71
2019-02-26T11:35:07.500Z,22.80
2019-02-26T11:36:08.216Z,23.16
2019-02-26T11:37:08.886Z,23.97
2019-02-26T11:38:09.138Z,22.50
2019-02-26T11:39:09.265Z,22.38
2019-02-26T11:40:07.401Z,22.71
2019-02-26T11:41:07.378Z,23.79
2019-02-26T11:42:07.374Z,25.55
2019-02-26T11:43:11.476Z,26.10
2019-02-26T11:44:12.143Z,26.32
2019-02-26T11:45:09.305Z,25.74
2019-02-26T11:46:08.728Z,24.88
2019-02-26T11:47:08.558Z,25.46
2019-02-26T11:48:08.804Z,24.79
2019-02-26T11:49:09.251Z,25.95
2019-02-26T11:50:09.255Z,24.98
2019-02-26T11:51:07.176Z,24.96
2019-02-26T11:52:07.161Z,25.67
2019-02-26T11:53:09.342Z,24.02
2019-02-26T11:54:08.279Z,23.92
2019-02-26T11:55:09.426Z,23.91
2019-02-26T11:56:07.081Z,23.53
2019-02-26T11:57:10.143Z,23.33
2019-02-26T11:58:10.056Z,24.70
2019-02-26T11:59:09.112Z,25.09
2019-02-26T12:00:09.091Z,23.82
2019-02-26T12:01:06.980Z,23.14
2019-02-26T12:02:06.967Z,22.74
2019-02-26T12:03:06.946Z,22.46
2019-02-26T12:04:08.501Z,22.86
2019-02-26T12:05:08.141Z,21.99
2019-02-26T12:06:07.153Z,22.27
2019-02-26T12:07:09.707Z,21.99
2019-02-26T12:08:06.862Z,22.30
2019-02-26T12:09:08.755Z,22.27
2019-02-26T12:10:09.424Z,22.20
2019-02-26T12:11:12.297Z,21.50
2019-02-26T12:12:09.208Z,21.14
2019-02-26T12:13:06.757Z,21.22
2019-02-26T12:14:08.265Z,21.12
2019-02-26T12:15:09.126Z,19.94
2019-02-26T12:16:06.700Z,19.85
2019-02-26T12:17:06.681Z,20.14
2019-02-26T12:18:06.660Z,21.99
2019-02-26T12:19:08.723Z,22.49
2019-02-26T12:20:06.623Z,22.88
2019-02-26T12:21:07.983Z,22.30
2019-02-26T12:22:06.592Z,22.49
2019-02-26T12:23:07.985Z,23.28
2019-02-26T12:24:08.898Z,23.46
2019-02-26T12:25:08.958Z,23.28
2019-02-26T12:26:06.537Z,23.18
2019-02-26T12:27:07.400Z,22.67
2019-02-26T12:28:08.266Z,22.66
2019-02-26T12:29:06.456Z,23.08
2019-02-26T12:30:07.213Z,21.48
2019-02-26T12:31:08.117Z,22.36
2019-02-26T12:32:06.398Z,22.17
2019-02-26T12:33:07.719Z,22.77
2019-02-26T12:34:08.369Z,22.36
2019-02-26T12:35:08.624Z,21.96
2019-02-26T12:36:07.377Z,22.08
2019-02-26T12:37:09.824Z,22.52
2019-02-26T12:38:17.221Z,22.69
2019-02-26T12:39:06.276Z,23.34
2019-02-26T12:40:06.246Z,25.65
2019-02-26T12:41:09.019Z,26.98
2019-02-26T12:42:07.391Z,28.32
2019-02-26T12:43:08.460Z,27.90
2019-02-26T12:44:10.738Z,29.33
2019-02-26T12:45:07.696Z,31.15
2019-02-26T12:46:08.447Z,32.78
2019-02-26T12:47:06.104Z,32.76
2019-02-26T12:48:07.144Z,31.87
2019-02-26T12:49:08.553Z,31.41
2019-02-26T12:50:08.809Z,31.32
2019-02-26T12:51:07.772Z,32.54
2019-02-26T12:52:05.985Z,31.60